sensor_id;sensor_type;location;lat;lon;timestamp;pressure;altitude;pressure_sealevel;temperature;humidity
51530;BME280;37613;51.788;21.582;2022-08-21T00:03:03;99749.05;;;20.07;74.43
51530;BME280;37613;51.788;21.582;2022-08-21T00:07:05;99747.05;;;20.02;74.91
51530;BME280;37613;51.788;21.582;2022-08-21T00:11:08;99746.05;;;19.96;74.80
51530;BME280;37613;51.788;21.582;2022-08-21T00:15:14;99751.67;;;19.87;75.08
51530;BME280;37613;51.788;21.582;2022-08-21T00:19:16;99745.56;;;19.79;74.86
51530;BME280;37613;51.788;21.582;2022-08-21T00:23:18;99745.60;;;19.72;75.01
51530;BME280;37613;51.788;21.582;2022-08-21T00:27:20;99745.33;;;19.66;75.03
51530;BME280;37613;51.788;21.582;2022-08-21T00:31:22;99744.40;;;19.62;75.00
51530;BME280;37613;51.788;21.582;2022-08-21T00:35:30;99744.66;;;19.59;75.40
51530;BME280;37613;51.788;21.582;2022-08-21T00:39:32;99742.85;;;19.56;75.56
51530;BME280;37613;51.788;21.582;2022-08-21T00:43:36;99740.21;;;19.54;75.42
51530;BME280;37613;51.788;21.582;2022-08-21T00:47:39;99742.12;;;19.51;75.49
51530;BME280;37613;51.788;21.582;2022-08-21T00:51:45;99734.20;;;19.46;76.51
51530;BME280;37613;51.788;21.582;2022-08-21T00:55:49;99729.00;;;19.37;76.65
51530;BME280;37613;51.788;21.582;2022-08-21T00:59:54;99725.94;;;19.28;76.47
51530;BME280;37613;51.788;21.582;2022-08-21T01:03:57;99721.02;;;19.22;76.36
51530;BME280;37613;51.788;21.582;2022-08-21T01:07:59;99719.36;;;19.17;76.99
51530;BME280;37613;51.788;21.582;2022-08-21T01:12:02;99719.80;;;19.13;77.23
51530;BME280;37613;51.788;21.582;2022-08-21T01:16:08;99711.88;;;19.07;77.58
51530;BME280;37613;51.788;21.582;2022-08-21T01:20:11;99713.19;;;19.03;78.19
51530;BME280;37613;51.788;21.582;2022-08-21T01:24:13;99708.04;;;18.99;78.40
51530;BME280;37613;51.788;21.582;2022-08-21T01:28:15;99708.31;;;18.93;79.16
51530;BME280;37613;51.788;21.582;2022-08-21T01:32:19;99707.36;;;18.88;78.74
51530;BME280;37613;51.788;21.582;2022-08-21T01:36:22;99712.33;;;18.85;78.65
51530;BME280;37613;51.788;21.582;2022-08-21T01:40:25;99707.77;;;18.83;78.63
51530;BME280;37613;51.788;21.582;2022-08-21T01:44:27;99702.88;;;18.79;78.70
51530;BME280;37613;51.788;21.582;2022-08-21T01:48:29;99695.05;;;18.75;79.13
51530;BME280;37613;51.788;21.582;2022-08-21T01:52:31;99693.02;;;18.68;79.36
51530;BME280;37613;51.788;21.582;2022-08-21T01:56:40;99693.09;;;18.62;79.70
51530;BME280;37613;51.788;21.582;2022-08-21T02:00:42;99688.34;;;18.56;79.48
51530;BME280;37613;51.788;21.582;2022-08-21T02:04:45;99684.23;;;18.52;79.97
51530;BME280;37613;51.788;21.582;2022-08-21T02:08:46;99677.92;;;18.45;79.48
51530;BME280;37613;51.788;21.582;2022-08-21T02:12:48;99681.00;;;18.40;80.08
51530;BME280;37613;51.788;21.582;2022-08-21T02:16:51;99681.08;;;18.34;80.26
51530;BME280;37613;51.788;21.582;2022-08-21T02:20:53;99674.21;;;18.30;80.00
51530;BME280;37613;51.788;21.582;2022-08-21T02:24:54;99674.33;;;18.27;80.35
51530;BME280;37613;51.788;21.582;2022-08-21T02:28:56;99672.20;;;18.22;80.39
51530;BME280;37613;51.788;21.582;2022-08-21T02:32:59;99668.34;;;18.19;80.57
51530;BME280;37613;51.788;21.582;2022-08-21T02:37:01;99669.98;;;18.16;80.57
51530;BME280;37613;51.788;21.582;2022-08-21T02:41:05;99668.34;;;18.13;80.24
51530;BME280;37613;51.788;21.582;2022-08-21T02:45:07;99664.30;;;18.06;80.36
51530;BME280;37613;51.788;21.582;2022-08-21T02:49:09;99665.59;;;18.01;80.43
51530;BME280;37613;51.788;21.582;2022-08-21T02:53:13;99665.25;;;17.97;80.55
51530;BME280;37613;51.788;21.582;2022-08-21T02:57:17;99663.16;;;17.96;80.45
51530;BME280;37613;51.788;21.582;2022-08-21T03:01:19;99662.13;;;17.94;80.57
51530;BME280;37613;51.788;21.582;2022-08-21T03:05:21;99654.11;;;17.90;80.64
51530;BME280;37613;51.788;21.582;2022-08-21T03:09:23;99656.58;;;17.86;80.99
51530;BME280;37613;51.788;21.582;2022-08-21T03:13:25;99657.05;;;17.85;81.98
51530;BME280;37613;51.788;21.582;2022-08-21T03:17:27;99659.95;;;17.82;81.44
51530;BME280;37613;51.788;21.582;2022-08-21T03:21:29;99657.33;;;17.79;81.40
51530;BME280;37613;51.788;21.582;2022-08-21T03:25:32;99659.95;;;17.75;81.84
51530;BME280;37613;51.788;21.582;2022-08-21T03:29:34;99657.20;;;17.70;81.72
51530;BME280;37613;51.788;21.582;2022-08-21T03:33:36;99658.41;;;17.67;83.02
51530;BME280;37613;51.788;21.582;2022-08-21T03:37:39;99656.40;;;17.65;83.17
51530;BME280;37613;51.788;21.582;2022-08-21T03:41:41;99657.86;;;17.64;82.72
51530;BME280;37613;51.788;21.582;2022-08-21T03:45:42;99654.63;;;17.63;83.49
51530;BME280;37613;51.788;21.582;2022-08-21T03:49:45;99654.29;;;17.64;83.20
51530;BME280;37613;51.788;21.582;2022-08-21T03:53:47;99656.88;;;17.67;83.10
51530;BME280;37613;51.788;21.582;2022-08-21T03:57:48;99655.83;;;17.72;83.38
51530;BME280;37613;51.788;21.582;2022-08-21T04:01:55;99653.38;;;17.80;83.06
51530;BME280;37613;51.788;21.582;2022-08-21T04:05:58;99654.45;;;17.96;83.22
51530;BME280;37613;51.788;21.582;2022-08-21T04:10:00;99650.64;;;18.18;83.89
51530;BME280;37613;51.788;21.582;2022-08-21T04:14:01;99648.29;;;18.42;83.41
51530;BME280;37613;51.788;21.582;2022-08-21T04:18:04;99647.98;;;18.77;83.30
51530;BME280;37613;51.788;21.582;2022-08-21T04:22:07;99644.09;;;19.10;83.08
51530;BME280;37613;51.788;21.582;2022-08-21T04:26:08;99643.37;;;19.42;82.57
51530;BME280;37613;51.788;21.582;2022-08-21T04:30:12;99647.32;;;19.75;82.26
51530;BME280;37613;51.788;21.582;2022-08-21T04:34:14;99645.30;;;20.05;81.40
51530;BME280;37613;51.788;21.582;2022-08-21T04:38:16;99642.32;;;20.35;81.32
51530;BME280;37613;51.788;21.582;2022-08-21T04:42:18;99646.69;;;20.75;80.00
51530;BME280;37613;51.788;21.582;2022-08-21T04:46:21;99648.39;;;21.11;79.55
51530;BME280;37613;51.788;21.582;2022-08-21T04:50:42;99654.42;;;21.53;79.15
51530;BME280;37613;51.788;21.582;2022-08-21T04:54:46;99653.96;;;21.89;77.65
51530;BME280;37613;51.788;21.582;2022-08-21T04:58:51;99647.89;;;22.17;76.55
51530;BME280;37613;51.788;21.582;2022-08-21T05:02:55;99647.64;;;22.56;75.49
51530;BME280;37613;51.788;21.582;2022-08-21T05:07:05;99652.91;;;23.02;74.13
51530;BME280;37613;51.788;21.582;2022-08-21T05:11:07;99655.02;;;23.40;74.02
51530;BME280;37613;51.788;21.582;2022-08-21T05:15:11;99657.40;;;23.96;72.56
51530;BME280;37613;51.788;21.582;2022-08-21T05:19:14;99660.67;;;24.26;70.75
51530;BME280;37613;51.788;21.582;2022-08-21T05:23:16;99664.06;;;24.56;69.36
51530;BME280;37613;51.788;21.582;2022-08-21T05:27:18;99666.73;;;24.96;68.70
51530;BME280;37613;51.788;21.582;2022-08-21T05:31:19;99668.39;;;25.33;66.78
51530;BME280;37613;51.788;21.582;2022-08-21T05:35:22;99667.41;;;25.59;66.02
51530;BME280;37613;51.788;21.582;2022-08-21T05:39:23;99675.41;;;25.92;64.72
51530;BME280;37613;51.788;21.582;2022-08-21T05:43:25;99681.12;;;26.23;65.05
51530;BME280;37613;51.788;21.582;2022-08-21T05:47:27;99684.00;;;26.24;62.53
51530;BME280;37613;51.788;21.582;2022-08-21T05:51:29;99680.19;;;25.96;63.38
51530;BME280;37613;51.788;21.582;2022-08-21T05:55:31;99679.68;;;25.65;63.00
51530;BME280;37613;51.788;21.582;2022-08-21T05:59:33;99685.55;;;25.13;63.77
51530;BME280;37613;51.788;21.582;2022-08-21T06:03:37;99678.01;;;24.59;63.60
51530;BME280;37613;51.788;21.582;2022-08-21T06:07:39;99673.93;;;24.15;64.35
51530;BME280;37613;51.788;21.582;2022-08-21T06:11:41;99670.77;;;23.85;64.70
51530;BME280;37613;51.788;21.582;2022-08-21T06:15:43;99671.69;;;23.70;65.32
51530;BME280;37613;51.788;21.582;2022-08-21T06:19:50;99672.02;;;23.66;65.92
51530;BME280;37613;51.788;21.582;2022-08-21T06:23:52;99667.58;;;23.64;66.54
51530;BME280;37613;51.788;21.582;2022-08-21T06:28:01;99674.04;;;23.78;66.41
51530;BME280;37613;51.788;21.582;2022-08-21T06:32:04;99671.18;;;23.88;66.42
51530;BME280;37613;51.788;21.582;2022-08-21T06:36:06;99663.83;;;24.12;66.72
51530;BME280;37613;51.788;21.582;2022-08-21T06:40:08;99668.81;;;24.44;66.21
51530;BME280;37613;51.788;21.582;2022-08-21T06:44:10;99665.55;;;24.53;66.23
51530;BME280;37613;51.788;21.582;2022-08-21T06:48:12;99665.41;;;24.67;65.84
51530;BME280;37613;51.788;21.582;2022-08-21T06:52:14;99667.30;;;24.95;65.98
51530;BME280;37613;51.788;21.582;2022-08-21T06:56:15;99666.43;;;25.20;65.66
51530;BME280;37613;51.788;21.582;2022-08-21T07:00:17;99666.00;;;25.46;65.23
51530;BME280;37613;51.788;21.582;2022-08-21T07:04:20;99665.45;;;25.34;63.80
51530;BME280;37613;51.788;21.582;2022-08-21T07:08:22;99669.88;;;25.18;64.33
51530;BME280;37613;51.788;21.582;2022-08-21T07:12:23;99674.39;;;25.15;64.44
51530;BME280;37613;51.788;21.582;2022-08-21T07:16:25;99674.88;;;25.41;64.42
51530;BME280;37613;51.788;21.582;2022-08-21T07:20:28;99680.39;;;25.66;63.55
51530;BME280;37613;51.788;21.582;2022-08-21T07:24:31;99675.14;;;25.77;62.52
51530;BME280;37613;51.788;21.582;2022-08-21T07:28:33;99680.85;;;25.76;62.99
51530;BME280;37613;51.788;21.582;2022-08-21T07:32:35;99678.79;;;25.77;62.47
51530;BME280;37613;51.788;21.582;2022-08-21T07:36:37;99677.19;;;25.80;61.73
51530;BME280;37613;51.788;21.582;2022-08-21T07:40:39;99667.88;;;25.77;61.95
51530;BME280;37613;51.788;21.582;2022-08-21T07:44:41;99668.41;;;25.68;61.18
51530;BME280;37613;51.788;21.582;2022-08-21T07:48:43;99657.61;;;25.52;61.38
51530;BME280;37613;51.788;21.582;2022-08-21T07:52:45;99653.65;;;25.51;61.11
51530;BME280;37613;51.788;21.582;2022-08-21T07:56:47;99651.52;;;25.67;61.40
51530;BME280;37613;51.788;21.582;2022-08-21T08:00:49;99650.73;;;25.77;60.75
51530;BME280;37613;51.788;21.582;2022-08-21T08:04:51;99646.71;;;25.85;60.77
51530;BME280;37613;51.788;21.582;2022-08-21T08:08:54;99642.44;;;25.99;60.23
51530;BME280;37613;51.788;21.582;2022-08-21T08:12:55;99638.32;;;25.99;59.33
51530;BME280;37613;51.788;21.582;2022-08-21T08:16:57;99642.85;;;25.99;58.83
51530;BME280;37613;51.788;21.582;2022-08-21T08:20:59;99644.86;;;25.99;58.79
51530;BME280;37613;51.788;21.582;2022-08-21T08:25:01;99637.43;;;26.07;58.62
51530;BME280;37613;51.788;21.582;2022-08-21T08:29:05;99629.33;;;26.16;58.03
51530;BME280;37613;51.788;21.582;2022-08-21T08:33:07;99620.65;;;26.37;58.28
51530;BME280;37613;51.788;21.582;2022-08-21T08:37:09;99623.30;;;26.56;57.78
51530;BME280;37613;51.788;21.582;2022-08-21T08:41:17;99628.50;;;26.61;57.27
51530;BME280;37613;51.788;21.582;2022-08-21T08:45:21;99624.38;;;26.70;57.10
51530;BME280;37613;51.788;21.582;2022-08-21T08:50:07;99621.73;;;26.76;56.91
51530;BME280;37613;51.788;21.582;2022-08-21T08:54:15;99620.54;;;26.64;56.08
51530;BME280;37613;51.788;21.582;2022-08-21T08:58:25;99624.32;;;26.40;56.25
51530;BME280;37613;51.788;21.582;2022-08-21T09:02:29;99626.97;;;26.15;56.16
51530;BME280;37613;51.788;21.582;2022-08-21T09:27:58;99620.64;;;27.14;54.30
51530;BME280;37613;51.788;21.582;2022-08-21T09:31:59;99620.26;;;27.30;52.40
51530;BME280;37613;51.788;21.582;2022-08-21T09:36:02;99618.05;;;27.35;52.60
51530;BME280;37613;51.788;21.582;2022-08-21T09:40:29;99615.58;;;27.42;52.29
51530;BME280;37613;51.788;21.582;2022-08-21T09:44:38;99616.25;;;27.35;51.86
51530;BME280;37613;51.788;21.582;2022-08-21T09:48:48;99616.36;;;27.49;52.58
51530;BME280;37613;51.788;21.582;2022-08-21T09:52:54;99611.16;;;27.73;52.28
51530;BME280;37613;51.788;21.582;2022-08-21T09:56:58;99617.58;;;27.71;51.86
51530;BME280;37613;51.788;21.582;2022-08-21T10:01:22;99608.98;;;27.57;51.60
51530;BME280;37613;51.788;21.582;2022-08-21T10:05:26;99608.63;;;27.40;51.63
51530;BME280;37613;51.788;21.582;2022-08-21T10:09:29;99607.18;;;27.26;52.17
51530;BME280;37613;51.788;21.582;2022-08-21T10:18:02;99614.40;;;27.48;51.96
51530;BME280;37613;51.788;21.582;2022-08-21T10:31:28;99604.84;;;27.18;51.85
51530;BME280;37613;51.788;21.582;2022-08-21T10:48:20;99599.34;;;27.24;51.96
51530;BME280;37613;51.788;21.582;2022-08-21T10:56:36;99595.70;;;26.85;51.61
51530;BME280;37613;51.788;21.582;2022-08-21T11:00:43;99592.94;;;26.82;51.79
51530;BME280;37613;51.788;21.582;2022-08-21T11:09:18;99588.41;;;27.21;51.48
51530;BME280;37613;51.788;21.582;2022-08-21T11:13:42;99586.23;;;27.32;51.45
51530;BME280;37613;51.788;21.582;2022-08-21T11:17:50;99582.80;;;27.42;50.94
51530;BME280;37613;51.788;21.582;2022-08-21T11:26:28;99585.41;;;27.37;50.92
51530;BME280;37613;51.788;21.582;2022-08-21T11:30:42;99588.09;;;27.40;50.61
51530;BME280;37613;51.788;21.582;2022-08-21T11:43:44;99578.42;;;26.96;52.65
51530;BME280;37613;51.788;21.582;2022-08-21T11:56:47;99584.64;;;26.55;53.05
51530;BME280;37613;51.788;21.582;2022-08-21T12:05:40;99581.97;;;26.53;53.60
51530;BME280;37613;51.788;21.582;2022-08-21T12:09:55;99581.94;;;26.61;53.59
51530;BME280;37613;51.788;21.582;2022-08-21T12:18:30;99571.42;;;26.72;53.13
51530;BME280;37613;51.788;21.582;2022-08-21T12:22:40;99572.70;;;26.85;53.17
51530;BME280;37613;51.788;21.582;2022-08-21T12:26:52;99574.83;;;27.06;52.79
51530;BME280;37613;51.788;21.582;2022-08-21T12:30:54;99578.45;;;27.16;52.18
51530;BME280;37613;51.788;21.582;2022-08-21T12:39:02;99585.02;;;27.14;51.75
51530;BME280;37613;51.788;21.582;2022-08-21T12:43:14;99589.00;;;26.86;52.25
51530;BME280;37613;51.788;21.582;2022-08-21T12:53:04;99590.30;;;26.25;52.90
51530;BME280;37613;51.788;21.582;2022-08-21T12:57:08;99590.19;;;26.11;53.26
51530;BME280;37613;51.788;21.582;2022-08-21T13:01:22;99593.44;;;26.07;53.50
51530;BME280;37613;51.788;21.582;2022-08-21T13:05:35;99594.56;;;26.10;53.63
51530;BME280;37613;51.788;21.582;2022-08-21T13:09:49;99591.20;;;26.20;53.90
51530;BME280;37613;51.788;21.582;2022-08-21T13:13:53;99594.86;;;26.46;53.94
51530;BME280;37613;51.788;21.582;2022-08-21T13:17:55;99597.27;;;26.56;53.36
51530;BME280;37613;51.788;21.582;2022-08-21T13:22:03;99596.36;;;26.43;53.17
51530;BME280;37613;51.788;21.582;2022-08-21T13:26:13;99595.23;;;26.14;53.66
51530;BME280;37613;51.788;21.582;2022-08-21T13:30:20;99594.69;;;25.97;54.34
51530;BME280;37613;51.788;21.582;2022-08-21T13:34:28;99588.57;;;25.87;54.56
51530;BME280;37613;51.788;21.582;2022-08-21T13:38:33;99589.86;;;25.88;54.85
51530;BME280;37613;51.788;21.582;2022-08-21T13:42:40;99587.69;;;25.83;54.90
51530;BME280;37613;51.788;21.582;2022-08-21T13:46:42;99588.16;;;25.78;54.96
51530;BME280;37613;51.788;21.582;2022-08-21T13:56:03;99580.44;;;25.77;55.42
51530;BME280;37613;51.788;21.582;2022-08-21T14:04:21;99582.13;;;25.81;55.47
51530;BME280;37613;51.788;21.582;2022-08-21T14:08:35;99581.00;;;25.84;55.55
51530;BME280;37613;51.788;21.582;2022-08-21T14:12:53;99591.21;;;25.83;55.68
51530;BME280;37613;51.788;21.582;2022-08-21T14:17:05;99592.77;;;25.57;55.80
51530;BME280;37613;51.788;21.582;2022-08-21T14:21:09;99589.73;;;25.45;56.44
51530;BME280;37613;51.788;21.582;2022-08-21T14:25:12;99588.33;;;25.52;56.56
51530;BME280;37613;51.788;21.582;2022-08-21T14:29:16;99590.91;;;25.53;56.27
51530;BME280;37613;51.788;21.582;2022-08-21T14:33:31;99588.85;;;25.46;56.27
51530;BME280;37613;51.788;21.582;2022-08-21T14:37:34;99587.29;;;25.44;56.76
51530;BME280;37613;51.788;21.582;2022-08-21T14:41:37;99588.85;;;25.45;57.30
51530;BME280;37613;51.788;21.582;2022-08-21T14:45:38;99585.80;;;25.39;56.85
51530;BME280;37613;51.788;21.582;2022-08-21T14:49:42;99586.92;;;25.36;56.77
51530;BME280;37613;51.788;21.582;2022-08-21T14:53:47;99585.33;;;25.37;56.55
51530;BME280;37613;51.788;21.582;2022-08-21T14:57:51;99583.39;;;25.38;56.45
51530;BME280;37613;51.788;21.582;2022-08-21T15:01:54;99588.52;;;25.33;56.79
51530;BME280;37613;51.788;21.582;2022-08-21T15:05:58;99594.10;;;25.23;56.79
51530;BME280;37613;51.788;21.582;2022-08-21T15:10:00;99594.71;;;25.13;56.68
51530;BME280;37613;51.788;21.582;2022-08-21T15:14:06;99595.40;;;25.05;56.63
51530;BME280;37613;51.788;21.582;2022-08-21T15:18:09;99594.55;;;25.01;56.51
51530;BME280;37613;51.788;21.582;2022-08-21T15:22:11;99594.57;;;24.96;56.75
51530;BME280;37613;51.788;21.582;2022-08-21T15:26:13;99598.48;;;24.93;56.89
51530;BME280;37613;51.788;21.582;2022-08-21T15:30:15;99598.41;;;24.88;57.07
51530;BME280;37613;51.788;21.582;2022-08-21T15:34:17;99601.52;;;24.84;57.16
51530;BME280;37613;51.788;21.582;2022-08-21T15:38:19;99609.25;;;24.73;57.10
51530;BME280;37613;51.788;21.582;2022-08-21T15:42:21;99609.63;;;24.65;57.16
51530;BME280;37613;51.788;21.582;2022-08-21T15:46:24;99611.05;;;24.60;57.03
51530;BME280;37613;51.788;21.582;2022-08-21T15:50:26;99609.73;;;24.56;57.29
51530;BME280;37613;51.788;21.582;2022-08-21T15:54:29;99611.36;;;24.52;57.55
51530;BME280;37613;51.788;21.582;2022-08-21T15:58:31;99612.77;;;24.47;57.55
51530;BME280;37613;51.788;21.582;2022-08-21T16:02:33;99611.43;;;24.47;57.55
51530;BME280;37613;51.788;21.582;2022-08-21T16:06:35;99604.45;;;24.39;57.76
51530;BME280;37613;51.788;21.582;2022-08-21T16:10:38;99605.48;;;24.32;58.03
51530;BME280;37613;51.788;21.582;2022-08-21T16:14:41;99606.77;;;24.27;58.01
51530;BME280;37613;51.788;21.582;2022-08-21T16:18:42;99607.85;;;24.19;58.04
51530;BME280;37613;51.788;21.582;2022-08-21T16:22:45;99601.13;;;24.12;58.29
51530;BME280;37613;51.788;21.582;2022-08-21T16:26:48;99603.00;;;24.08;58.55
51530;BME280;37613;51.788;21.582;2022-08-21T16:30:51;99598.14;;;24.04;58.46
51530;BME280;37613;51.788;21.582;2022-08-21T16:34:53;99594.20;;;23.98;58.38
51530;BME280;37613;51.788;21.582;2022-08-21T16:38:56;99594.06;;;23.93;58.75
51530;BME280;37613;51.788;21.582;2022-08-21T16:42:58;99594.93;;;23.87;58.95
51530;BME280;37613;51.788;21.582;2022-08-21T16:47:00;99602.23;;;23.80;59.01
51530;BME280;37613;51.788;21.582;2022-08-21T16:51:03;99605.76;;;23.73;59.50
51530;BME280;37613;51.788;21.582;2022-08-21T16:55:06;99608.77;;;23.66;59.57
51530;BME280;37613;51.788;21.582;2022-08-21T16:59:10;99608.73;;;23.57;59.69
51530;BME280;37613;51.788;21.582;2022-08-21T17:03:15;99609.46;;;23.48;59.64
51530;BME280;37613;51.788;21.582;2022-08-21T17:07:18;99612.77;;;23.40;59.95
51530;BME280;37613;51.788;21.582;2022-08-21T17:11:42;99611.70;;;23.35;60.39
51530;BME280;37613;51.788;21.582;2022-08-21T17:15:44;99613.48;;;23.28;60.46
51530;BME280;37613;51.788;21.582;2022-08-21T17:19:46;99611.43;;;23.19;60.72
51530;BME280;37613;51.788;21.582;2022-08-21T17:23:49;99613.71;;;23.08;60.93
51530;BME280;37613;51.788;21.582;2022-08-21T17:27:51;99617.36;;;22.94;61.27
51530;BME280;37613;51.788;21.582;2022-08-21T17:31:53;99618.44;;;22.80;61.46
51530;BME280;37613;51.788;21.582;2022-08-21T17:35:56;99619.33;;;22.66;61.58
51530;BME280;37613;51.788;21.582;2022-08-21T17:39:58;99625.41;;;22.52;62.10
51530;BME280;37613;51.788;21.582;2022-08-21T17:44:04;99621.17;;;22.38;62.35
51530;BME280;37613;51.788;21.582;2022-08-21T17:48:08;99627.33;;;22.25;62.80
51530;BME280;37613;51.788;21.582;2022-08-21T17:52:09;99632.73;;;22.12;63.00
51530;BME280;37613;51.788;21.582;2022-08-21T17:56:14;99633.09;;;21.98;63.10
51530;BME280;37613;51.788;21.582;2022-08-21T18:00:18;99628.17;;;21.79;63.35
51530;BME280;37613;51.788;21.582;2022-08-21T18:04:20;99633.65;;;21.73;63.52
51530;BME280;37613;51.788;21.582;2022-08-21T18:08:22;99627.19;;;21.61;63.84
51530;BME280;37613;51.788;21.582;2022-08-21T18:12:24;99628.53;;;21.50;64.01
51530;BME280;37613;51.788;21.582;2022-08-21T18:16:28;99635.91;;;21.39;64.12
51530;BME280;37613;51.788;21.582;2022-08-21T18:20:30;99636.29;;;21.29;64.46
51530;BME280;37613;51.788;21.582;2022-08-21T18:24:36;99643.16;;;21.18;64.69
51530;BME280;37613;51.788;21.582;2022-08-21T18:28:38;99643.38;;;21.08;65.11
51530;BME280;37613;51.788;21.582;2022-08-21T18:32:41;99645.27;;;20.98;65.78
51530;BME280;37613;51.788;21.582;2022-08-21T18:36:43;99646.37;;;20.94;65.53
51530;BME280;37613;51.788;21.582;2022-08-21T18:40:49;99654.27;;;20.92;65.56
51530;BME280;37613;51.788;21.582;2022-08-21T18:44:54;99653.52;;;20.89;65.73
51530;BME280;37613;51.788;21.582;2022-08-21T18:48:56;99654.65;;;20.84;65.85
51530;BME280;37613;51.788;21.582;2022-08-21T18:52:58;99650.98;;;20.79;66.11
51530;BME280;37613;51.788;21.582;2022-08-21T18:57:00;99656.41;;;20.73;66.36
51530;BME280;37613;51.788;21.582;2022-08-21T19:01:02;99660.36;;;20.67;66.45
51530;BME280;37613;51.788;21.582;2022-08-21T19:05:05;99664.13;;;20.59;66.82
51530;BME280;37613;51.788;21.582;2022-08-21T19:09:09;99660.83;;;20.49;66.89
51530;BME280;37613;51.788;21.582;2022-08-21T19:13:14;99668.19;;;20.41;67.11
51530;BME280;37613;51.788;21.582;2022-08-21T19:17:17;99670.63;;;20.34;67.29
51530;BME280;37613;51.788;21.582;2022-08-21T19:21:19;99667.16;;;20.27;67.62
51530;BME280;37613;51.788;21.582;2022-08-21T19:25:22;99670.21;;;20.21;67.89
51530;BME280;37613;51.788;21.582;2022-08-21T19:29:24;99677.30;;;20.13;67.90
51530;BME280;37613;51.788;21.582;2022-08-21T19:33:31;99676.82;;;20.07;68.18
51530;BME280;37613;51.788;21.582;2022-08-21T19:37:33;99674.59;;;20.01;68.44
51530;BME280;37613;51.788;21.582;2022-08-21T19:41:37;99679.43;;;19.97;68.56
51530;BME280;37613;51.788;21.582;2022-08-21T19:45:42;99679.08;;;19.94;68.89
51530;BME280;37613;51.788;21.582;2022-08-21T19:49:50;99678.17;;;19.91;69.00
51530;BME280;37613;51.788;21.582;2022-08-21T19:53:54;99679.38;;;19.88;69.21
51530;BME280;37613;51.788;21.582;2022-08-21T19:57:56;99677.89;;;19.84;69.42
51530;BME280;37613;51.788;21.582;2022-08-21T20:01:58;99676.40;;;19.80;69.53
51530;BME280;37613;51.788;21.582;2022-08-21T20:06:00;99675.84;;;19.76;69.70
51530;BME280;37613;51.788;21.582;2022-08-21T20:15:20;99670.98;;;19.63;70.81
51530;BME280;37613;51.788;21.582;2022-08-21T20:19:22;99670.14;;;19.58;70.83
51530;BME280;37613;51.788;21.582;2022-08-21T20:23:25;99670.91;;;19.56;71.66
51530;BME280;37613;51.788;21.582;2022-08-21T20:27:28;99671.72;;;19.53;71.44
51530;BME280;37613;51.788;21.582;2022-08-21T20:31:31;99670.62;;;19.51;72.05
51530;BME280;37613;51.788;21.582;2022-08-21T20:35:33;99667.46;;;19.48;71.94
51530;BME280;37613;51.788;21.582;2022-08-21T20:39:35;99664.34;;;19.46;72.43
51530;BME280;37613;51.788;21.582;2022-08-21T20:43:37;99660.46;;;19.43;72.51
51530;BME280;37613;51.788;21.582;2022-08-21T20:47:40;99656.86;;;19.38;72.50
51530;BME280;37613;51.788;21.582;2022-08-21T20:51:49;99654.32;;;19.34;72.96
51530;BME280;37613;51.788;21.582;2022-08-21T20:55:54;99654.23;;;19.31;72.88
51530;BME280;37613;51.788;21.582;2022-08-21T21:00:05;99661.45;;;19.28;73.06
51530;BME280;37613;51.788;21.582;2022-08-21T21:04:42;99662.41;;;19.28;73.06
51530;BME280;37613;51.788;21.582;2022-08-21T21:08:58;99663.39;;;19.26;73.13
51530;BME280;37613;51.788;21.582;2022-08-21T21:13:31;99662.12;;;19.23;73.27
51530;BME280;37613;51.788;21.582;2022-08-21T21:22:52;99662.41;;;19.13;73.72
51530;BME280;37613;51.788;21.582;2022-08-21T21:26:57;99661.52;;;19.08;73.87
51530;BME280;37613;51.788;21.582;2022-08-21T21:31:02;99656.32;;;19.01;74.05
51530;BME280;37613;51.788;21.582;2022-08-21T21:35:06;99652.86;;;18.94;74.64
51530;BME280;37613;51.788;21.582;2022-08-21T21:47:39;99650.75;;;18.74;75.60
51530;BME280;37613;51.788;21.582;2022-08-21T21:52:27;99654.48;;;18.69;76.21
51530;BME280;37613;51.788;21.582;2022-08-21T21:56:53;99649.71;;;18.64;76.27
51530;BME280;37613;51.788;21.582;2022-08-21T22:06:24;99653.70;;;18.62;77.10
51530;BME280;37613;51.788;21.582;2022-08-21T22:14:38;99654.64;;;18.64;77.76
51530;BME280;37613;51.788;21.582;2022-08-21T22:18:54;99659.40;;;18.68;77.76
51530;BME280;37613;51.788;21.582;2022-08-21T22:22:58;99659.52;;;18.73;78.18
51530;BME280;37613;51.788;21.582;2022-08-21T22:27:09;99656.26;;;18.73;78.18
51530;BME280;37613;51.788;21.582;2022-08-21T22:31:32;99655.85;;;18.73;78.11
51530;BME280;37613;51.788;21.582;2022-08-21T22:35:35;99658.30;;;18.73;78.94
51530;BME280;37613;51.788;21.582;2022-08-21T22:39:39;99658.59;;;18.71;79.17
51530;BME280;37613;51.788;21.582;2022-08-21T22:43:52;99658.00;;;18.65;78.91
51530;BME280;37613;51.788;21.582;2022-08-21T22:48:03;99652.23;;;18.61;80.04
51530;BME280;37613;51.788;21.582;2022-08-21T22:52:55;99648.06;;;18.55;79.57
51530;BME280;37613;51.788;21.582;2022-08-21T22:57:02;99644.83;;;18.48;79.41
51530;BME280;37613;51.788;21.582;2022-08-21T23:09:45;99647.88;;;18.44;79.85
51530;BME280;37613;51.788;21.582;2022-08-21T23:13:49;99648.09;;;18.47;79.81
51530;BME280;37613;51.788;21.582;2022-08-21T23:18:14;99647.71;;;18.50;80.02
51530;BME280;37613;51.788;21.582;2022-08-21T23:56:16;99652.81;;;18.67;80.59
